sensor_id;sensor_type;location;lat;lon;timestamp;temperature;humidity
44377;DHT22;30093;0.000;0.000;2022-07-25T00:03:04;17.40;1.00
44377;DHT22;30093;0.000;0.000;2022-07-25T00:06:52;17.40;1.00
44377;DHT22;30093;0.000;0.000;2022-07-25T00:10:40;17.30;1.00
44377;DHT22;30093;0.000;0.000;2022-07-25T00:14:28;16.90;99.90
44377;DHT22;30093;0.000;0.000;2022-07-25T00:18:16;16.70;1.00
44377;DHT22;30093;0.000;0.000;2022-07-25T00:22:04;16.60;1.00
44377;DHT22;30093;0.000;0.000;2022-07-25T00:25:52;16.40;1.00
44377;DHT22;30093;0.000;0.000;2022-07-25T00:29:40;16.40;49.00
44377;DHT22;30093;0.000;0.000;2022-07-25T00:33:28;16.60;1.00
44377;DHT22;30093;0.000;0.000;2022-07-25T00:37:16;16.60;1.00
44377;DHT22;30093;0.000;0.000;2022-07-25T00:41:08;16.40;1.00
44377;DHT22;30093;0.000;0.000;2022-07-25T00:44:57;16.00;1.00
44377;DHT22;30093;0.000;0.000;2022-07-25T00:48:46;15.90;1.00
44377;DHT22;30093;0.000;0.000;2022-07-25T00:52:35;15.60;99.90
44377;DHT22;30093;0.000;0.000;2022-07-25T00:56:23;15.70;1.00
44377;DHT22;30093;0.000;0.000;2022-07-25T01:00:12;16.00;99.90
44377;DHT22;30093;0.000;0.000;2022-07-25T01:04:01;16.00;99.90
44377;DHT22;30093;0.000;0.000;2022-07-25T01:07:50;16.10;37.10
44377;DHT22;30093;0.000;0.000;2022-07-25T01:11:38;16.00;1.00
44377;DHT22;30093;0.000;0.000;2022-07-25T01:15:26;15.60;1.00
44377;DHT22;30093;0.000;0.000;2022-07-25T01:19:14;15.90;1.00
44377;DHT22;30093;0.000;0.000;2022-07-25T01:23:02;15.80;33.90
44377;DHT22;30093;0.000;0.000;2022-07-25T01:26:51;15.80;1.00
44377;DHT22;30093;0.000;0.000;2022-07-25T01:30:39;15.90;99.90
44377;DHT22;30093;0.000;0.000;2022-07-25T01:34:28;15.70;99.90
44377;DHT22;30093;0.000;0.000;2022-07-25T01:38:16;14.90;1.00
44377;DHT22;30093;0.000;0.000;2022-07-25T01:42:07;15.40;91.60
44377;DHT22;30093;0.000;0.000;2022-07-25T01:45:56;15.40;1.00
44377;DHT22;30093;0.000;0.000;2022-07-25T01:49:45;15.40;99.90
44377;DHT22;30093;0.000;0.000;2022-07-25T01:53:33;14.70;99.90
44377;DHT22;30093;0.000;0.000;2022-07-25T01:57:22;15.70;99.90
44377;DHT22;30093;0.000;0.000;2022-07-25T02:01:10;15.20;1.00
44377;DHT22;30093;0.000;0.000;2022-07-25T02:04:58;14.30;1.00
44377;DHT22;30093;0.000;0.000;2022-07-25T02:08:46;14.60;99.90
44377;DHT22;30093;0.000;0.000;2022-07-25T02:12:34;14.60;1.00
44377;DHT22;30093;0.000;0.000;2022-07-25T02:16:22;14.30;1.00
44377;DHT22;30093;0.000;0.000;2022-07-25T02:20:10;14.40;1.00
44377;DHT22;30093;0.000;0.000;2022-07-25T02:23:59;13.70;99.90
44377;DHT22;30093;0.000;0.000;2022-07-25T02:27:47;14.70;1.00
44377;DHT22;30093;0.000;0.000;2022-07-25T02:31:35;14.80;1.00
44377;DHT22;30093;0.000;0.000;2022-07-25T02:35:24;14.90;99.90
44377;DHT22;30093;0.000;0.000;2022-07-25T02:39:12;15.00;99.90
44377;DHT22;30093;0.000;0.000;2022-07-25T02:43:00;15.20;86.10
44377;DHT22;30093;0.000;0.000;2022-07-25T02:46:48;15.20;99.90
44377;DHT22;30093;0.000;0.000;2022-07-25T02:50:37;15.10;99.90
44377;DHT22;30093;0.000;0.000;2022-07-25T02:54:29;15.30;54.40
44377;DHT22;30093;0.000;0.000;2022-07-25T02:58:18;15.40;1.00
44377;DHT22;30093;0.000;0.000;2022-07-25T03:02:07;15.40;1.00
44377;DHT22;30093;0.000;0.000;2022-07-25T03:06:01;15.40;1.00
44377;DHT22;30093;0.000;0.000;2022-07-25T03:09:55;14.60;1.00
44377;DHT22;30093;0.000;0.000;2022-07-25T03:13:47;15.50;1.00
44377;DHT22;30093;0.000;0.000;2022-07-25T03:17:40;15.50;99.90
44377;DHT22;30093;0.000;0.000;2022-07-25T03:21:34;15.40;1.00
44377;DHT22;30093;0.000;0.000;2022-07-25T03:25:23;15.50;99.90
44377;DHT22;30093;0.000;0.000;2022-07-25T03:29:11;15.50;99.90
44377;DHT22;30093;0.000;0.000;2022-07-25T03:33:01;15.40;99.90
44377;DHT22;30093;0.000;0.000;2022-07-25T03:36:53;15.50;1.00
44377;DHT22;30093;0.000;0.000;2022-07-25T03:40:41;15.60;1.00
44377;DHT22;30093;0.000;0.000;2022-07-25T03:44:29;15.80;1.00
44377;DHT22;30093;0.000;0.000;2022-07-25T03:48:17;16.00;91.10
44377;DHT22;30093;0.000;0.000;2022-07-25T03:52:05;16.20;1.00
44377;DHT22;30093;0.000;0.000;2022-07-25T03:55:53;16.60;99.90
44377;DHT22;30093;0.000;0.000;2022-07-25T03:59:42;16.50;33.20
44377;DHT22;30093;0.000;0.000;2022-07-25T04:03:30;16.90;1.00
44377;DHT22;30093;0.000;0.000;2022-07-25T04:07:18;17.40;1.00
44377;DHT22;30093;0.000;0.000;2022-07-25T04:11:07;19.10;1.00
44377;DHT22;30093;0.000;0.000;2022-07-25T04:14:55;22.80;1.00
44377;DHT22;30093;0.000;0.000;2022-07-25T04:18:44;26.90;1.00
44377;DHT22;30093;0.000;0.000;2022-07-25T04:22:32;29.50;1.00
44377;DHT22;30093;0.000;0.000;2022-07-25T04:26:20;31.30;99.90
44377;DHT22;30093;0.000;0.000;2022-07-25T04:30:11;32.70;99.90
44377;DHT22;30093;0.000;0.000;2022-07-25T04:34:00;34.20;99.90
44377;DHT22;30093;0.000;0.000;2022-07-25T04:37:48;35.40;99.90
44377;DHT22;30093;0.000;0.000;2022-07-25T04:41:36;36.70;99.90
44377;DHT22;30093;0.000;0.000;2022-07-25T04:45:24;37.40;99.90
44377;DHT22;30093;0.000;0.000;2022-07-25T04:49:12;36.90;99.90
44377;DHT22;30093;0.000;0.000;2022-07-25T04:53:00;37.60;99.90
44377;DHT22;30093;0.000;0.000;2022-07-25T04:56:48;37.00;99.90
44377;DHT22;30093;0.000;0.000;2022-07-25T05:00:37;34.90;99.90
44377;DHT22;30093;0.000;0.000;2022-07-25T05:04:25;34.80;99.90
44377;DHT22;30093;0.000;0.000;2022-07-25T05:08:13;35.70;99.90
44377;DHT22;30093;0.000;0.000;2022-07-25T05:12:02;36.30;99.90
44377;DHT22;30093;0.000;0.000;2022-07-25T05:15:50;38.70;99.90
44377;DHT22;30093;0.000;0.000;2022-07-25T05:19:39;40.50;99.90
44377;DHT22;30093;0.000;0.000;2022-07-25T05:23:27;41.10;99.90
44377;DHT22;30093;0.000;0.000;2022-07-25T05:27:15;42.10;99.90
44377;DHT22;30093;0.000;0.000;2022-07-25T05:31:03;43.40;99.90
44377;DHT22;30093;0.000;0.000;2022-07-25T05:34:51;43.60;99.90
44377;DHT22;30093;0.000;0.000;2022-07-25T05:38:39;42.80;99.90
44377;DHT22;30093;0.000;0.000;2022-07-25T05:42:27;44.00;99.90
44377;DHT22;30093;0.000;0.000;2022-07-25T05:46:15;42.80;99.90
44377;DHT22;30093;0.000;0.000;2022-07-25T05:50:03;42.90;99.90
44377;DHT22;30093;0.000;0.000;2022-07-25T05:53:51;44.50;99.90
44377;DHT22;30093;0.000;0.000;2022-07-25T05:57:40;44.70;99.90
44377;DHT22;30093;0.000;0.000;2022-07-25T06:01:28;45.40;99.90
44377;DHT22;30093;0.000;0.000;2022-07-25T06:05:16;44.70;99.90
44377;DHT22;30093;0.000;0.000;2022-07-25T06:09:05;46.00;99.90
44377;DHT22;30093;0.000;0.000;2022-07-25T06:12:53;45.70;99.90
44377;DHT22;30093;0.000;0.000;2022-07-25T06:16:41;44.40;99.90
44377;DHT22;30093;0.000;0.000;2022-07-25T06:20:30;44.60;99.90
44377;DHT22;30093;0.000;0.000;2022-07-25T06:24:18;45.60;99.90
44377;DHT22;30093;0.000;0.000;2022-07-25T06:28:06;45.00;99.90
44377;DHT22;30093;0.000;0.000;2022-07-25T06:31:54;43.80;99.90
44377;DHT22;30093;0.000;0.000;2022-07-25T06:35:43;44.10;99.90
44377;DHT22;30093;0.000;0.000;2022-07-25T06:39:31;45.20;99.90
44377;DHT22;30093;0.000;0.000;2022-07-25T06:43:19;47.50;99.90
44377;DHT22;30093;0.000;0.000;2022-07-25T06:47:07;48.60;99.90
44377;DHT22;30093;0.000;0.000;2022-07-25T06:51:01;49.00;99.90
44377;DHT22;30093;0.000;0.000;2022-07-25T06:54:49;48.70;99.90
44377;DHT22;30093;0.000;0.000;2022-07-25T06:58:37;49.10;99.90
44377;DHT22;30093;0.000;0.000;2022-07-25T07:02:25;49.30;99.90
44377;DHT22;30093;0.000;0.000;2022-07-25T07:06:13;49.10;99.90
44377;DHT22;30093;0.000;0.000;2022-07-25T07:10:02;48.50;99.90
44377;DHT22;30093;0.000;0.000;2022-07-25T07:13:50;48.80;99.90
44377;DHT22;30093;0.000;0.000;2022-07-25T07:17:39;49.10;99.90
44377;DHT22;30093;0.000;0.000;2022-07-25T07:21:28;48.60;99.90
44377;DHT22;30093;0.000;0.000;2022-07-25T07:25:18;47.30;99.90
44377;DHT22;30093;0.000;0.000;2022-07-25T07:29:08;47.50;99.90
44377;DHT22;30093;0.000;0.000;2022-07-25T07:32:57;45.50;99.90
44377;DHT22;30093;0.000;0.000;2022-07-25T07:36:45;47.50;99.90
44377;DHT22;30093;0.000;0.000;2022-07-25T07:40:33;48.10;99.90
44377;DHT22;30093;0.000;0.000;2022-07-25T07:44:21;48.50;99.90
44377;DHT22;30093;0.000;0.000;2022-07-25T07:48:09;48.20;99.90
44377;DHT22;30093;0.000;0.000;2022-07-25T07:51:58;48.20;99.90
44377;DHT22;30093;0.000;0.000;2022-07-25T07:55:46;43.60;99.90
44377;DHT22;30093;0.000;0.000;2022-07-25T07:59:41;39.60;99.90
44377;DHT22;30093;0.000;0.000;2022-07-25T08:03:29;37.10;99.90
44377;DHT22;30093;0.000;0.000;2022-07-25T08:07:18;35.60;99.90
44377;DHT22;30093;0.000;0.000;2022-07-25T08:11:06;35.10;99.90
44377;DHT22;30093;0.000;0.000;2022-07-25T08:14:55;34.90;99.90
44377;DHT22;30093;0.000;0.000;2022-07-25T08:18:43;33.50;99.90
44377;DHT22;30093;0.000;0.000;2022-07-25T08:22:36;33.40;99.90
44377;DHT22;30093;0.000;0.000;2022-07-25T08:26:24;33.10;99.90
44377;DHT22;30093;0.000;0.000;2022-07-25T08:30:15;33.10;99.90
44377;DHT22;30093;0.000;0.000;2022-07-25T08:34:03;31.30;99.90
44377;DHT22;30093;0.000;0.000;2022-07-25T08:37:53;31.60;99.90
44377;DHT22;30093;0.000;0.000;2022-07-25T08:41:41;31.70;99.90
44377;DHT22;30093;0.000;0.000;2022-07-25T08:45:31;31.50;99.90
44377;DHT22;30093;0.000;0.000;2022-07-25T08:49:19;30.30;99.90
44377;DHT22;30093;0.000;0.000;2022-07-25T08:53:07;29.80;99.90
44377;DHT22;30093;0.000;0.000;2022-07-25T08:56:55;30.60;99.90
44377;DHT22;30093;0.000;0.000;2022-07-25T09:00:44;30.80;99.90
44377;DHT22;30093;0.000;0.000;2022-07-25T09:04:32;30.60;99.90
44377;DHT22;30093;0.000;0.000;2022-07-25T09:08:21;30.30;99.90
44377;DHT22;30093;0.000;0.000;2022-07-25T09:12:09;30.30;99.90
44377;DHT22;30093;0.000;0.000;2022-07-25T09:15:57;30.20;99.90
44377;DHT22;30093;0.000;0.000;2022-07-25T09:19:51;30.00;99.90
44377;DHT22;30093;0.000;0.000;2022-07-25T09:23:39;29.80;99.90
44377;DHT22;30093;0.000;0.000;2022-07-25T09:27:27;29.80;99.90
44377;DHT22;30093;0.000;0.000;2022-07-25T09:31:19;29.60;99.90
44377;DHT22;30093;0.000;0.000;2022-07-25T09:35:07;29.70;99.90
44377;DHT22;30093;0.000;0.000;2022-07-25T09:38:57;29.70;99.90
44377;DHT22;30093;0.000;0.000;2022-07-25T09:42:49;29.60;99.90
44377;DHT22;30093;0.000;0.000;2022-07-25T09:46:37;29.40;99.90
44377;DHT22;30093;0.000;0.000;2022-07-25T09:50:26;29.40;99.90
44377;DHT22;30093;0.000;0.000;2022-07-25T09:54:14;29.50;99.90
44377;DHT22;30093;0.000;0.000;2022-07-25T09:58:02;28.80;99.90
44377;DHT22;30093;0.000;0.000;2022-07-25T10:01:53;29.50;99.90
44377;DHT22;30093;0.000;0.000;2022-07-25T10:05:56;29.40;99.90
44377;DHT22;30093;0.000;0.000;2022-07-25T10:09:48;29.50;99.90
44377;DHT22;30093;0.000;0.000;2022-07-25T10:13:36;27.20;99.90
44377;DHT22;30093;0.000;0.000;2022-07-25T10:17:25;28.70;99.90
44377;DHT22;30093;0.000;0.000;2022-07-25T10:21:13;29.30;99.90
44377;DHT22;30093;0.000;0.000;2022-07-25T10:25:15;29.10;99.90
44377;DHT22;30093;0.000;0.000;2022-07-25T10:29:06;29.30;99.90
44377;DHT22;30093;0.000;0.000;2022-07-25T10:33:16;29.30;99.90
44377;DHT22;30093;0.000;0.000;2022-07-25T10:37:11;29.30;99.90
44377;DHT22;30093;0.000;0.000;2022-07-25T10:41:03;29.10;99.90
44377;DHT22;30093;0.000;0.000;2022-07-25T10:44:55;28.60;99.90
44377;DHT22;30093;0.000;0.000;2022-07-25T10:48:55;29.10;99.90
44377;DHT22;30093;0.000;0.000;2022-07-25T10:52:44;29.00;99.90
44377;DHT22;30093;0.000;0.000;2022-07-25T10:56:35;28.90;99.90
44377;DHT22;30093;0.000;0.000;2022-07-25T11:00:23;26.80;99.90
44377;DHT22;30093;0.000;0.000;2022-07-25T11:04:15;28.80;99.90
44377;DHT22;30093;0.000;0.000;2022-07-25T11:08:04;28.00;99.90
44377;DHT22;30093;0.000;0.000;2022-07-25T11:11:53;28.80;99.90
44377;DHT22;30093;0.000;0.000;2022-07-25T11:15:42;28.60;99.90
44377;DHT22;30093;0.000;0.000;2022-07-25T11:19:31;28.60;99.90
44377;DHT22;30093;0.000;0.000;2022-07-25T11:23:20;28.60;99.90
44377;DHT22;30093;0.000;0.000;2022-07-25T11:27:10;28.80;99.90
44377;DHT22;30093;0.000;0.000;2022-07-25T11:31:02;28.70;99.90
44377;DHT22;30093;0.000;0.000;2022-07-25T11:34:51;28.60;99.90
44377;DHT22;30093;0.000;0.000;2022-07-25T11:38:40;28.70;99.90
44377;DHT22;30093;0.000;0.000;2022-07-25T11:42:37;28.80;99.90
44377;DHT22;30093;0.000;0.000;2022-07-25T11:46:27;28.80;99.90
44377;DHT22;30093;0.000;0.000;2022-07-25T11:50:15;28.80;99.90
44377;DHT22;30093;0.000;0.000;2022-07-25T11:54:07;28.70;99.90
44377;DHT22;30093;0.000;0.000;2022-07-25T11:57:58;28.80;99.90
44377;DHT22;30093;0.000;0.000;2022-07-25T12:01:46;28.40;99.90
44377;DHT22;30093;0.000;0.000;2022-07-25T12:05:35;28.80;99.90
44377;DHT22;30093;0.000;0.000;2022-07-25T12:09:22;28.80;99.90
44377;DHT22;30093;0.000;0.000;2022-07-25T12:13:20;28.90;99.90
44377;DHT22;30093;0.000;0.000;2022-07-25T12:17:11;28.70;99.90
44377;DHT22;30093;0.000;0.000;2022-07-25T12:20:58;26.60;99.90
44377;DHT22;30093;0.000;0.000;2022-07-25T12:24:46;28.60;99.90
44377;DHT22;30093;0.000;0.000;2022-07-25T12:28:35;28.70;99.90
44377;DHT22;30093;0.000;0.000;2022-07-25T12:32:23;28.70;99.90
44377;DHT22;30093;0.000;0.000;2022-07-25T12:36:11;28.70;99.90
44377;DHT22;30093;0.000;0.000;2022-07-25T12:40:01;27.80;99.90
44377;DHT22;30093;0.000;0.000;2022-07-25T12:43:48;28.90;99.90
44377;DHT22;30093;0.000;0.000;2022-07-25T12:47:37;28.80;99.90
44377;DHT22;30093;0.000;0.000;2022-07-25T12:51:26;28.40;99.90
44377;DHT22;30093;0.000;0.000;2022-07-25T12:55:15;28.20;99.90
44377;DHT22;30093;0.000;0.000;2022-07-25T12:59:04;29.10;99.90
44377;DHT22;30093;0.000;0.000;2022-07-25T13:02:52;29.00;99.90
44377;DHT22;30093;0.000;0.000;2022-07-25T13:06:42;29.10;99.90
44377;DHT22;30093;0.000;0.000;2022-07-25T13:10:31;29.20;99.90
44377;DHT22;30093;0.000;0.000;2022-07-25T13:14:18;29.20;99.90
44377;DHT22;30093;0.000;0.000;2022-07-25T13:18:07;29.10;99.90
44377;DHT22;30093;0.000;0.000;2022-07-25T13:21:55;29.20;99.90
44377;DHT22;30093;0.000;0.000;2022-07-25T13:25:44;29.10;99.90
44377;DHT22;30093;0.000;0.000;2022-07-25T13:29:32;29.20;99.90
44377;DHT22;30093;0.000;0.000;2022-07-25T13:33:21;29.10;99.90
44377;DHT22;30093;0.000;0.000;2022-07-25T13:37:08;29.20;99.90
44377;DHT22;30093;0.000;0.000;2022-07-25T13:40:57;29.20;99.90
44377;DHT22;30093;0.000;0.000;2022-07-25T13:44:46;29.20;99.90
44377;DHT22;30093;0.000;0.000;2022-07-25T13:48:34;29.20;99.90
44377;DHT22;30093;0.000;0.000;2022-07-25T13:52:22;29.30;99.90
44377;DHT22;30093;0.000;0.000;2022-07-25T13:56:10;29.30;99.90
44377;DHT22;30093;0.000;0.000;2022-07-25T13:59:59;29.30;99.90
44377;DHT22;30093;0.000;0.000;2022-07-25T14:03:47;29.30;99.90
44377;DHT22;30093;0.000;0.000;2022-07-25T14:07:36;29.40;99.90
44377;DHT22;30093;0.000;0.000;2022-07-25T14:11:25;29.40;99.90
44377;DHT22;30093;0.000;0.000;2022-07-25T14:15:13;29.60;99.90
44377;DHT22;30093;0.000;0.000;2022-07-25T14:19:01;29.50;99.90
44377;DHT22;30093;0.000;0.000;2022-07-25T14:22:49;29.50;99.90
44377;DHT22;30093;0.000;0.000;2022-07-25T14:26:38;29.50;99.90
44377;DHT22;30093;0.000;0.000;2022-07-25T14:30:27;29.50;99.90
44377;DHT22;30093;0.000;0.000;2022-07-25T14:34:14;29.50;99.90
44377;DHT22;30093;0.000;0.000;2022-07-25T14:38:03;29.50;99.90
44377;DHT22;30093;0.000;0.000;2022-07-25T14:41:53;29.10;99.90
44377;DHT22;30093;0.000;0.000;2022-07-25T14:45:42;29.60;99.90
44377;DHT22;30093;0.000;0.000;2022-07-25T14:49:31;29.60;99.90
44377;DHT22;30093;0.000;0.000;2022-07-25T14:53:23;29.60;99.90
44377;DHT22;30093;0.000;0.000;2022-07-25T14:57:10;29.40;99.90
44377;DHT22;30093;0.000;0.000;2022-07-25T15:00:59;29.60;99.90
44377;DHT22;30093;0.000;0.000;2022-07-25T15:04:47;29.70;99.90
44377;DHT22;30093;0.000;0.000;2022-07-25T15:08:36;29.50;99.90
44377;DHT22;30093;0.000;0.000;2022-07-25T15:12:26;29.50;99.90
44377;DHT22;30093;0.000;0.000;2022-07-25T15:16:15;29.60;99.90
44377;DHT22;30093;0.000;0.000;2022-07-25T15:20:04;29.50;99.90
44377;DHT22;30093;0.000;0.000;2022-07-25T15:23:53;29.50;99.90
44377;DHT22;30093;0.000;0.000;2022-07-25T15:27:44;29.50;99.90
44377;DHT22;30093;0.000;0.000;2022-07-25T15:31:32;29.60;99.90
44377;DHT22;30093;0.000;0.000;2022-07-25T15:35:20;29.60;99.90
44377;DHT22;30093;0.000;0.000;2022-07-25T15:39:12;29.60;99.90
44377;DHT22;30093;0.000;0.000;2022-07-25T15:43:00;29.80;99.90
44377;DHT22;30093;0.000;0.000;2022-07-25T15:46:48;29.70;99.90
44377;DHT22;30093;0.000;0.000;2022-07-25T15:50:38;29.80;99.90
44377;DHT22;30093;0.000;0.000;2022-07-25T15:54:26;29.80;99.90
44377;DHT22;30093;0.000;0.000;2022-07-25T15:58:15;29.80;99.90
44377;DHT22;30093;0.000;0.000;2022-07-25T16:02:03;29.80;99.90
44377;DHT22;30093;0.000;0.000;2022-07-25T16:05:56;29.70;99.90
44377;DHT22;30093;0.000;0.000;2022-07-25T16:09:46;29.80;99.90
44377;DHT22;30093;0.000;0.000;2022-07-25T16:13:34;29.80;99.90
44377;DHT22;30093;0.000;0.000;2022-07-25T16:17:22;29.90;99.90
44377;DHT22;30093;0.000;0.000;2022-07-25T16:21:12;29.90;99.90
44377;DHT22;30093;0.000;0.000;2022-07-25T16:25:01;29.90;99.90
44377;DHT22;30093;0.000;0.000;2022-07-25T16:28:50;29.80;99.90
44377;DHT22;30093;0.000;0.000;2022-07-25T16:32:39;29.80;99.90
44377;DHT22;30093;0.000;0.000;2022-07-25T16:36:26;29.70;99.90
44377;DHT22;30093;0.000;0.000;2022-07-25T16:40:16;29.80;99.90
44377;DHT22;30093;0.000;0.000;2022-07-25T16:44:05;29.70;99.90
44377;DHT22;30093;0.000;0.000;2022-07-25T16:47:53;29.30;99.90
44377;DHT22;30093;0.000;0.000;2022-07-25T16:51:42;29.70;99.90
44377;DHT22;30093;0.000;0.000;2022-07-25T16:55:37;29.70;99.90
44377;DHT22;30093;0.000;0.000;2022-07-25T16:59:25;29.70;99.90
44377;DHT22;30093;0.000;0.000;2022-07-25T17:03:13;29.60;99.90
44377;DHT22;30093;0.000;0.000;2022-07-25T17:07:01;29.60;99.90
44377;DHT22;30093;0.000;0.000;2022-07-25T17:10:49;29.50;99.90
44377;DHT22;30093;0.000;0.000;2022-07-25T17:14:38;29.50;99.90
44377;DHT22;30093;0.000;0.000;2022-07-25T17:18:27;29.40;99.90
44377;DHT22;30093;0.000;0.000;2022-07-25T17:22:14;29.40;99.90
44377;DHT22;30093;0.000;0.000;2022-07-25T17:26:03;28.60;99.90
44377;DHT22;30093;0.000;0.000;2022-07-25T17:29:52;29.20;99.90
44377;DHT22;30093;0.000;0.000;2022-07-25T17:33:40;29.20;99.90
44377;DHT22;30093;0.000;0.000;2022-07-25T17:37:28;28.00;99.90
44377;DHT22;30093;0.000;0.000;2022-07-25T17:41:16;29.10;99.90
44377;DHT22;30093;0.000;0.000;2022-07-25T17:45:05;29.00;99.90
44377;DHT22;30093;0.000;0.000;2022-07-25T17:48:54;28.90;99.90
44377;DHT22;30093;0.000;0.000;2022-07-25T17:52:42;28.80;99.90
44377;DHT22;30093;0.000;0.000;2022-07-25T17:56:30;28.70;99.90
44377;DHT22;30093;0.000;0.000;2022-07-25T18:00:19;28.50;99.90
44377;DHT22;30093;0.000;0.000;2022-07-25T18:04:08;28.40;99.90
44377;DHT22;30093;0.000;0.000;2022-07-25T18:07:57;28.30;99.90
44377;DHT22;30093;0.000;0.000;2022-07-25T18:11:46;28.20;99.90
44377;DHT22;30093;0.000;0.000;2022-07-25T18:15:34;28.10;99.90
44377;DHT22;30093;0.000;0.000;2022-07-25T18:19:24;27.90;99.90
44377;DHT22;30093;0.000;0.000;2022-07-25T18:23:13;27.70;99.90
44377;DHT22;30093;0.000;0.000;2022-07-25T18:27:01;27.60;99.90
44377;DHT22;30093;0.000;0.000;2022-07-25T18:30:49;27.50;99.90
44377;DHT22;30093;0.000;0.000;2022-07-25T18:34:37;25.60;99.90
44377;DHT22;30093;0.000;0.000;2022-07-25T18:38:25;27.10;99.90
44377;DHT22;30093;0.000;0.000;2022-07-25T18:42:14;27.00;99.90
44377;DHT22;30093;0.000;0.000;2022-07-25T18:46:02;26.80;99.90
44377;DHT22;30093;0.000;0.000;2022-07-25T18:49:50;26.70;99.90
44377;DHT22;30093;0.000;0.000;2022-07-25T18:53:40;26.50;99.90
44377;DHT22;30093;0.000;0.000;2022-07-25T18:57:28;26.40;99.90
44377;DHT22;30093;0.000;0.000;2022-07-25T19:01:17;26.30;99.90
44377;DHT22;30093;0.000;0.000;2022-07-25T19:05:05;26.10;99.90
44377;DHT22;30093;0.000;0.000;2022-07-25T19:08:55;26.00;99.90
44377;DHT22;30093;0.000;0.000;2022-07-25T19:12:43;28.20;99.90
44377;DHT22;30093;0.000;0.000;2022-07-25T19:16:31;25.90;99.90
44377;DHT22;30093;0.000;0.000;2022-07-25T19:20:19;25.80;99.90
44377;DHT22;30093;0.000;0.000;2022-07-25T19:24:06;25.70;99.90
44377;DHT22;30093;0.000;0.000;2022-07-25T19:27:55;25.60;99.90
44377;DHT22;30093;0.000;0.000;2022-07-25T19:31:43;25.50;99.90
44377;DHT22;30093;0.000;0.000;2022-07-25T19:35:31;25.40;99.90
44377;DHT22;30093;0.000;0.000;2022-07-25T19:39:23;25.40;99.90
44377;DHT22;30093;0.000;0.000;2022-07-25T19:43:11;25.40;99.90
44377;DHT22;30093;0.000;0.000;2022-07-25T19:47:01;25.30;99.90
44377;DHT22;30093;0.000;0.000;2022-07-25T19:50:50;23.20;99.90
44377;DHT22;30093;0.000;0.000;2022-07-25T19:54:39;25.20;99.90
44377;DHT22;30093;0.000;0.000;2022-07-25T19:58:27;25.10;99.90
44377;DHT22;30093;0.000;0.000;2022-07-25T20:02:15;25.20;99.90
44377;DHT22;30093;0.000;0.000;2022-07-25T20:06:03;25.50;99.90
44377;DHT22;30093;0.000;0.000;2022-07-25T20:09:51;25.60;99.90
44377;DHT22;30093;0.000;0.000;2022-07-25T20:13:41;25.60;99.90
44377;DHT22;30093;0.000;0.000;2022-07-25T20:17:28;25.50;99.90
44377;DHT22;30093;0.000;0.000;2022-07-25T20:21:17;25.50;99.90
44377;DHT22;30093;0.000;0.000;2022-07-25T20:25:05;25.40;99.90
44377;DHT22;30093;0.000;0.000;2022-07-25T20:28:54;25.50;99.90
44377;DHT22;30093;0.000;0.000;2022-07-25T20:32:42;25.90;99.90
44377;DHT22;30093;0.000;0.000;2022-07-25T20:36:30;25.40;99.90
44377;DHT22;30093;0.000;0.000;2022-07-25T20:40:19;25.20;99.90
44377;DHT22;30093;0.000;0.000;2022-07-25T20:44:07;25.30;99.90
44377;DHT22;30093;0.000;0.000;2022-07-25T20:47:56;25.20;99.90
44377;DHT22;30093;0.000;0.000;2022-07-25T20:51:44;24.80;99.90
44377;DHT22;30093;0.000;0.000;2022-07-25T20:55:33;24.50;99.90
44377;DHT22;30093;0.000;0.000;2022-07-25T20:59:21;24.30;99.90
44377;DHT22;30093;0.000;0.000;2022-07-25T21:03:09;23.50;99.90
44377;DHT22;30093;0.000;0.000;2022-07-25T21:06:57;24.00;99.90
44377;DHT22;30093;0.000;0.000;2022-07-25T21:10:45;23.80;99.90
44377;DHT22;30093;0.000;0.000;2022-07-25T21:14:35;23.70;99.90
44377;DHT22;30093;0.000;0.000;2022-07-25T21:18:24;23.30;99.90
44377;DHT22;30093;0.000;0.000;2022-07-25T21:22:12;23.10;99.90
44377;DHT22;30093;0.000;0.000;2022-07-25T21:26:01;22.70;99.90
44377;DHT22;30093;0.000;0.000;2022-07-25T21:29:49;22.40;99.90
44377;DHT22;30093;0.000;0.000;2022-07-25T21:33:41;22.30;99.90
44377;DHT22;30093;0.000;0.000;2022-07-25T21:37:30;21.20;99.90
44377;DHT22;30093;0.000;0.000;2022-07-25T21:41:19;22.10;1.00
44377;DHT22;30093;0.000;0.000;2022-07-25T21:45:07;22.20;1.00
44377;DHT22;30093;0.000;0.000;2022-07-25T21:48:56;22.30;1.00
44377;DHT22;30093;0.000;0.000;2022-07-25T21:53:06;22.40;1.00
44377;DHT22;30093;0.000;0.000;2022-07-25T21:56:55;22.30;1.00
44377;DHT22;30093;0.000;0.000;2022-07-25T22:00:45;22.30;1.00
44377;DHT22;30093;0.000;0.000;2022-07-25T22:04:33;22.30;1.00
44377;DHT22;30093;0.000;0.000;2022-07-25T22:08:21;22.10;1.00
44377;DHT22;30093;0.000;0.000;2022-07-25T22:12:09;22.10;1.00
44377;DHT22;30093;0.000;0.000;2022-07-25T22:15:58;21.90;1.00
44377;DHT22;30093;0.000;0.000;2022-07-25T22:19:47;21.30;1.00
44377;DHT22;30093;0.000;0.000;2022-07-25T22:23:35;21.50;1.00
44377;DHT22;30093;0.000;0.000;2022-07-25T22:27:23;20.00;1.00
44377;DHT22;30093;0.000;0.000;2022-07-25T22:31:16;21.60;1.00
44377;DHT22;30093;0.000;0.000;2022-07-25T22:35:06;21.60;1.00
44377;DHT22;30093;0.000;0.000;2022-07-25T22:38:54;21.50;1.00
44377;DHT22;30093;0.000;0.000;2022-07-25T22:42:43;21.50;1.00
44377;DHT22;30093;0.000;0.000;2022-07-25T22:46:32;21.30;1.00
44377;DHT22;30093;0.000;0.000;2022-07-25T22:50:21;21.00;1.00
44377;DHT22;30093;0.000;0.000;2022-07-25T22:54:09;21.00;1.00
44377;DHT22;30093;0.000;0.000;2022-07-25T22:57:59;21.20;1.00
44377;DHT22;30093;0.000;0.000;2022-07-25T23:01:48;20.70;1.00
44377;DHT22;30093;0.000;0.000;2022-07-25T23:05:37;21.30;1.00
44377;DHT22;30093;0.000;0.000;2022-07-25T23:09:25;21.20;1.00
44377;DHT22;30093;0.000;0.000;2022-07-25T23:13:12;21.10;1.00
44377;DHT22;30093;0.000;0.000;2022-07-25T23:17:01;20.90;1.00
44377;DHT22;30093;0.000;0.000;2022-07-25T23:21:05;20.70;1.00
44377;DHT22;30093;0.000;0.000;2022-07-25T23:24:54;20.50;1.00
44377;DHT22;30093;0.000;0.000;2022-07-25T23:28:42;18.70;1.00
44377;DHT22;30093;0.000;0.000;2022-07-25T23:32:30;20.60;1.00
44377;DHT22;30093;0.000;0.000;2022-07-25T23:36:20;20.60;1.00
44377;DHT22;30093;0.000;0.000;2022-07-25T23:40:08;20.70;1.00
44377;DHT22;30093;0.000;0.000;2022-07-25T23:43:58;20.60;1.00
44377;DHT22;30093;0.000;0.000;2022-07-25T23:47:47;20.80;1.00
44377;DHT22;30093;0.000;0.000;2022-07-25T23:51:38;20.80;1.00
44377;DHT22;30093;0.000;0.000;2022-07-25T23:55:26;21.00;1.00
44377;DHT22;30093;0.000;0.000;2022-07-25T23:59:16;21.00;1.00
